Time;durP1;ratioP1;P1;durP2;ratioP2;P2;SDS_P1;SDS_P2;PMS_P1;PMS_P2;Temp;Humidity;BMP_temperature;BMP_pressure;BME280_temperature;BME280_humidity;BME280_pressure;Samples;Min_cycle;Max_cycle;Signal;HPM_P1;HPM_P2
2023/09/19 01:41:44;;;;;;;2.78;1.35;;;;;;;;;;5112793;22;20287;-82
2023/09/19 01:44:14;;;;;;;1.95;1.73;;;;;;;;;;5101088;28;20200;-81
2023/09/19 01:46:42;;;;;;;2.42;1.75;;;;;;;;;;5100873;28;20197;-83
2023/09/19 01:49:18;;;;;;;1.75;1.65;;;;;;;;;;5102022;28;20205;-82
2023/09/19 01:51:50;;;;;;;2.55;1.95;;;;;;;;;;5097096;28;20224;-83
2023/09/19 01:54:18;;;;;;;2.97;1.65;;;;;;;;;;5091382;28;20205;-82
2023/09/19 01:56:51;;;;;;;1.90;1.63;;;;;;;;;;5092470;28;20292;-82
2023/09/19 01:59:23;;;;;;;3.72;1.60;;;;;;;;;;5091282;28;20224;-84
2023/09/19 02:01:51;;;;;;;2.17;1.80;;;;;;;;;;5092318;28;20231;-85
2023/09/19 02:04:18;;;;;;;2.72;1.80;;;;;;;;;;5091376;28;20586;-85
2023/09/19 02:06:47;;;;;;;1.63;1.55;;;;;;;;;;5091963;28;20204;-84
2023/09/19 02:09:15;;;;;;;1.70;1.60;;;;;;;;;;5091209;28;20196;-85
2023/09/19 02:11:42;;;;;;;1.65;1.55;;;;;;;;;;5091916;28;20278;-85
2023/09/19 02:14:10;;;;;;;3.22;1.90;;;;;;;;;;5091169;28;20235;-85
2023/09/19 02:16:38;;;;;;;2.72;1.48;;;;;;;;;;5091995;28;20639;-85
2023/09/19 02:19:06;;;;;;;1.67;1.58;;;;;;;;;;5091046;28;20712;-85
2023/09/19 02:21:33;;;;;;;2.95;1.55;;;;;;;;;;5091852;28;20627;-85
2023/09/19 02:24:00;;;;;;;1.48;1.38;;;;;;;;;;5091649;28;20674;-85
2023/09/19 02:26:27;;;;;;;1.60;1.50;;;;;;;;;;5091662;28;20223;-85
2023/09/19 02:28:54;;;;;;;1.83;1.65;;;;;;;;;;5091577;28;20231;-84
2023/09/19 02:31:22;;;;;;;3.15;1.63;;;;;;;;;;5091047;28;20232;-85
2023/09/19 02:33:49;;;;;;;2.00;1.60;;;;;;;;;;5091732;28;20449;-85
2023/09/19 02:36:17;;;;;;;1.60;1.50;;;;;;;;;;5091088;28;20232;-85
2023/09/19 02:38:44;;;;;;;2.22;1.55;;;;;;;;;;5091622;28;20310;-84
2023/09/19 02:41:11;;;;;;;1.50;1.38;;;;;;;;;;5090984;28;20235;-85
2023/09/19 02:43:38;;;;;;;1.60;1.48;;;;;;;;;;5091730;28;20735;-85
2023/09/19 02:46:06;;;;;;;2.15;1.80;;;;;;;;;;5091145;28;20248;-85
2023/09/19 02:48:35;;;;;;;1.52;1.42;;;;;;;;;;5091563;28;20201;-85
2023/09/19 02:51:03;;;;;;;1.50;1.40;;;;;;;;;;5090837;28;20317;-85
2023/09/19 02:53:31;;;;;;;1.50;1.40;;;;;;;;;;5091728;28;20196;-84
2023/09/19 02:55:59;;;;;;;3.45;1.50;;;;;;;;;;5090985;28;20813;-85
2023/09/19 02:58:27;;;;;;;1.48;1.38;;;;;;;;;;5091469;28;20212;-84
2023/09/19 03:00:55;;;;;;;3.13;1.70;;;;;;;;;;5090791;28;20224;-84
2023/09/19 03:03:22;;;;;;;2.53;1.52;;;;;;;;;;5091701;28;20205;-85
2023/09/19 03:05:53;;;;;;;1.70;1.60;;;;;;;;;;5091020;28;20657;-84
2023/09/19 03:08:20;;;;;;;1.60;1.50;;;;;;;;;;5095105;28;20768;-85
2023/09/19 03:10:47;;;;;;;2.05;1.17;;;;;;;;;;5094907;28;20303;-84
2023/09/19 03:13:15;;;;;;;1.50;1.40;;;;;;;;;;5095163;28;20234;-85
2023/09/19 03:15:44;;;;;;;1.88;1.30;;;;;;;;;;5094748;28;20228;-85
2023/09/19 03:18:11;;;;;;;2.60;1.73;;;;;;;;;;5095040;28;20211;-84
2023/09/19 03:20:38;;;;;;;1.55;1.45;;;;;;;;;;5094587;28;20229;-85
2023/09/19 03:23:08;;;;;;;1.50;1.40;;;;;;;;;;5095000;28;20200;-85
2023/09/19 03:25:35;;;;;;;2.03;1.55;;;;;;;;;;5094730;28;20232;-85
2023/09/19 03:28:05;;;;;;;1.75;1.60;;;;;;;;;;5094729;28;20559;-85
2023/09/19 03:30:33;;;;;;;3.28;1.65;;;;;;;;;;5094518;28;20228;-85
2023/09/19 03:33:01;;;;;;;2.87;1.70;;;;;;;;;;5094914;28;20201;-85
2023/09/19 03:35:28;;;;;;;1.60;1.50;;;;;;;;;;5094531;28;20224;-85
2023/09/19 03:37:55;;;;;;;2.13;1.80;;;;;;;;;;5094731;28;20285;-84
2023/09/19 03:40:25;;;;;;;1.50;1.40;;;;;;;;;;5093733;28;20256;-85
2023/09/19 03:42:52;;;;;;;1.63;1.50;;;;;;;;;;5094702;28;20201;-85
2023/09/19 03:45:19;;;;;;;2.55;1.70;;;;;;;;;;5094120;28;20717;-85
2023/09/19 03:47:47;;;;;;;2.67;1.73;;;;;;;;;;5094624;28;20197;-85
2023/09/19 03:50:17;;;;;;;1.33;1.23;;;;;;;;;;5094045;28;20773;-85
2023/09/19 03:52:44;;;;;;;1.37;1.27;;;;;;;;;;5094525;28;20578;-85
2023/09/19 03:55:11;;;;;;;1.40;1.30;;;;;;;;;;5093994;28;20235;-85
2023/09/19 03:57:39;;;;;;;1.50;1.40;;;;;;;;;;5094419;28;20220;-85
2023/09/19 04:00:11;;;;;;;2.30;1.73;;;;;;;;;;5093518;28;20232;-85
2023/09/19 04:02:38;;;;;;;1.60;1.50;;;;;;;;;;5094615;28;20212;-85
2023/09/19 04:05:05;;;;;;;1.53;1.40;;;;;;;;;;5093676;28;20232;-84
2023/09/19 04:07:32;;;;;;;2.87;1.30;;;;;;;;;;5094119;28;20666;-84
2023/09/19 04:09:59;;;;;;;1.67;1.57;;;;;;;;;;5093693;28;20220;-85
2023/09/19 04:12:26;;;;;;;1.80;1.40;;;;;;;;;;5094103;28;20224;-84
2023/09/19 04:14:55;;;;;;;1.37;1.27;;;;;;;;;;5093755;28;20282;-85
2023/09/19 04:17:23;;;;;;;1.40;1.30;;;;;;;;;;5093714;28;20207;-84
2023/09/19 04:19:50;;;;;;;2.60;1.50;;;;;;;;;;5093794;28;20250;-86
2023/09/19 04:22:17;;;;;;;4.37;1.70;;;;;;;;;;5093979;28;20236;-85
2023/09/19 04:24:44;;;;;;;1.57;1.27;;;;;;;;;;5093721;28;20220;-85
2023/09/19 04:27:12;;;;;;;2.03;1.40;;;;;;;;;;5093698;28;20211;-85
2023/09/19 04:29:39;;;;;;;1.30;1.20;;;;;;;;;;5093416;28;20225;-85
2023/09/19 04:32:07;;;;;;;1.53;1.43;;;;;;;;;;5093772;28;20224;-85
2023/09/19 04:34:35;;;;;;;1.33;1.30;;;;;;;;;;5093340;28;20224;-85
2023/09/19 04:37:03;;;;;;;4.43;1.97;;;;;;;;;;5093851;28;20200;-85
2023/09/19 04:39:30;;;;;;;1.50;1.40;;;;;;;;;;5093311;28;20231;-85
2023/09/19 04:41:58;;;;;;;1.43;1.30;;;;;;;;;;5093479;28;20228;-85
2023/09/19 04:44:25;;;;;;;1.70;1.60;;;;;;;;;;5093060;28;20713;-85
2023/09/19 04:46:52;;;;;;;1.60;1.50;;;;;;;;;;5093615;28;20200;-85
2023/09/19 04:49:21;;;;;;;1.90;1.70;;;;;;;;;;5092650;28;20209;-85
2023/09/19 04:51:48;;;;;;;3.53;1.90;;;;;;;;;;5093531;28;20231;-85
2023/09/19 04:54:15;;;;;;;3.97;1.57;;;;;;;;;;5092841;28;20298;-85
2023/09/19 04:56:42;;;;;;;2.97;2.20;;;;;;;;;;5093486;28;20663;-85
2023/09/19 04:59:10;;;;;;;2.23;2.03;;;;;;;;;;5092543;28;20205;-86
2023/09/19 05:01:37;;;;;;;2.50;2.30;;;;;;;;;;5093407;28;20597;-85
2023/09/19 05:04:05;;;;;;;2.50;1.70;;;;;;;;;;5093268;28;20662;-86
2023/09/19 05:06:34;;;;;;;2.33;2.13;;;;;;;;;;5077897;28;20677;-85
2023/09/19 05:09:01;;;;;;;3.07;2.00;;;;;;;;;;5093324;28;20239;-86
2023/09/19 05:11:30;;;;;;;1.73;1.63;;;;;;;;;;5095659;28;20224;-87
2023/09/19 05:13:57;;;;;;;2.97;1.90;;;;;;;;;;5096370;28;20205;-87
2023/09/19 05:16:24;;;;;;;1.73;1.63;;;;;;;;;;5096763;28;20310;-87
2023/09/19 05:18:52;;;;;;;4.17;1.90;;;;;;;;;;5096561;28;20717;-87
2023/09/19 05:21:19;;;;;;;3.40;1.93;;;;;;;;;;5094165;28;20651;-87
2023/09/19 05:23:47;;;;;;;3.07;2.13;;;;;;;;;;5094797;28;20204;-86
2023/09/19 05:26:16;;;;;;;1.93;1.80;;;;;;;;;;5093825;28;20228;-87
2023/09/19 05:28:43;;;;;;;3.13;1.90;;;;;;;;;;5094086;28;20201;-87
2023/09/19 05:31:10;;;;;;;2.03;1.87;;;;;;;;;;5093747;28;20264;-87
2023/09/19 05:33:37;;;;;;;2.63;2.10;;;;;;;;;;5094185;28;20215;-87
2023/09/19 05:36:04;;;;;;;2.07;1.90;;;;;;;;;;5093668;28;20737;-87
2023/09/19 05:38:32;;;;;;;3.27;2.00;;;;;;;;;;5094093;28;20221;-87
2023/09/19 05:41:01;;;;;;;3.20;1.90;;;;;;;;;;5093031;28;20286;-86
2023/09/19 05:43:28;;;;;;;3.23;1.97;;;;;;;;;;5094268;28;20576;-87
2023/09/19 05:45:56;;;;;;;2.03;1.77;;;;;;;;;;5093857;28;20600;-87
2023/09/19 05:48:23;;;;;;;3.03;1.87;;;;;;;;;;5093636;28;20212;-86
2023/09/19 05:50:50;;;;;;;3.57;1.80;;;;;;;;;;5093038;28;20228;-87
2023/09/19 05:53:17;;;;;;;3.93;1.83;;;;;;;;;;5093389;28;20277;-87
2023/09/19 05:55:45;;;;;;;2.17;1.97;;;;;;;;;;5092911;28;20236;-85
2023/09/19 05:58:14;;;;;;;1.60;1.50;;;;;;;;;;5093237;28;20211;-87
2023/09/19 06:00:44;;;;;;;3.30;1.90;;;;;;;;;;5092562;28;20256;-85
2023/09/19 06:03:13;;;;;;;3.80;2.10;;;;;;;;;;5093588;28;20266;-86
2023/09/19 06:05:41;;;;;;;1.73;1.63;;;;;;;;;;5092779;28;20232;-87
2023/09/19 06:08:09;;;;;;;2.80;1.97;;;;;;;;;;5093519;28;20216;-87
2023/09/19 06:10:36;;;;;;;1.73;1.63;;;;;;;;;;5093259;28;20315;-86
2023/09/19 06:13:05;;;;;;;5.37;1.90;;;;;;;;;;5093734;28;20201;-86
2023/09/19 06:15:35;;;;;;;1.83;1.73;;;;;;;;;;5093212;28;20232;-87
2023/09/19 06:18:04;;;;;;;2.10;1.90;;;;;;;;;;5093572;28;20185;-87
2023/09/19 06:20:33;;;;;;;3.07;1.53;;;;;;;;;;5094654;28;20228;-86
2023/09/19 06:23:01;;;;;;;2.77;1.60;;;;;;;;;;5105559;28;20272;-87
2023/09/19 06:25:29;;;;;;;2.63;1.67;;;;;;;;;;5104424;28;20262;-87
2023/09/19 06:27:56;;;;;;;2.43;1.70;;;;;;;;;;5108016;28;20230;-87
2023/09/19 06:30:24;;;;;;;2.03;1.93;;;;;;;;;;5106190;28;20256;-87
2023/09/19 06:32:56;;;;;;;3.47;1.50;;;;;;;;;;5108392;28;20234;-87
2023/09/19 06:35:24;;;;;;;3.37;1.67;;;;;;;;;;5107172;28;20236;-87
2023/09/19 06:37:51;;;;;;;2.73;1.63;;;;;;;;;;5114250;28;20201;-86
2023/09/19 06:40:18;;;;;;;1.90;1.53;;;;;;;;;;5092873;28;20232;-87
2023/09/19 06:42:46;;;;;;;3.43;1.80;;;;;;;;;;5096399;28;20201;-87
2023/09/19 06:45:17;;;;;;;4.10;1.80;;;;;;;;;;5097146;28;20240;-86
2023/09/19 06:47:45;;;;;;;2.43;1.60;;;;;;;;;;5097719;28;20222;-85
2023/09/19 06:50:14;;;;;;;3.93;1.90;;;;;;;;;;5096489;28;20235;-87
2023/09/19 06:52:41;;;;;;;1.70;1.60;;;;;;;;;;5097093;28;20253;-87
2023/09/19 06:55:09;;;;;;;3.83;1.87;;;;;;;;;;5096347;28;20256;-86
2023/09/19 06:57:36;;;;;;;3.20;1.77;;;;;;;;;;5096503;28;20258;-86
2023/09/19 07:00:09;;;;;;;1.87;1.50;;;;;;;;;;5096398;28;20244;-87
2023/09/19 07:02:36;;;;;;;2.63;1.63;;;;;;;;;;5096745;28;20234;-86
2023/09/19 07:05:03;;;;;;;1.93;1.80;;;;;;;;;;5095996;28;20636;-86
2023/09/19 07:07:34;;;;;;;2.90;1.80;;;;;;;;;;5095686;28;20596;-86
2023/09/19 07:10:01;;;;;;;1.90;1.80;;;;;;;;;;5096256;28;20271;-84
2023/09/19 07:12:28;;;;;;;1.70;1.60;;;;;;;;;;5096666;28;20226;-86
2023/09/19 07:14:56;;;;;;;3.83;2.33;;;;;;;;;;5095738;28;20229;-87
2023/09/19 07:17:23;;;;;;;3.67;2.00;;;;;;;;;;5096308;28;20658;-87
2023/09/19 07:19:50;;;;;;;2.10;1.93;;;;;;;;;;5095590;28;20464;-85
2023/09/19 07:22:18;;;;;;;3.27;1.73;;;;;;;;;;5095904;28;20606;-87
2023/09/19 07:24:46;;;;;;;5.83;1.80;;;;;;;;;;5095615;28;20229;-87
2023/09/19 07:27:13;;;;;;;1.63;1.52;;;;;;;;;;5095772;28;20737;-87
2023/09/19 07:29:40;;;;;;;2.53;1.60;;;;;;;;;;5095536;28;20243;-86
2023/09/19 07:32:07;;;;;;;2.73;1.93;;;;;;;;;;5096167;28;20224;-87
2023/09/19 07:34:35;;;;;;;1.57;1.47;;;;;;;;;;5097167;28;20228;-87
2023/09/19 07:37:03;;;;;;;3.07;1.63;;;;;;;;;;5096518;28;20213;-86
2023/09/19 07:39:30;;;;;;;1.23;1.13;;;;;;;;;;5095666;28;20277;-86
2023/09/19 07:41:59;;;;;;;1.77;1.67;;;;;;;;;;5129051;22;20231;-87
2023/09/19 07:44:26;;;;;;;3.03;1.50;;;;;;;;;;5128983;27;20227;-88
2023/09/19 07:46:54;;;;;;;2.37;1.60;;;;;;;;;;5132518;27;20277;-87
2023/09/19 07:49:21;;;;;;;2.38;1.63;;;;;;;;;;5125610;27;20243;-88
2023/09/19 07:51:48;;;;;;;4.00;1.42;;;;;;;;;;5138562;27;20230;-87
2023/09/19 07:54:16;;;;;;;3.42;1.58;;;;;;;;;;5129684;27;20199;-87
2023/09/19 07:56:45;;;;;;;3.65;1.90;;;;;;;;;;5131293;27;20256;-87
2023/09/19 07:59:14;;;;;;;1.88;1.45;;;;;;;;;;5138211;27;20203;-89
2023/09/19 08:01:41;;;;;;;4.47;1.70;;;;;;;;;;5138729;27;20306;-87
2023/09/19 08:04:08;;;;;;;2.03;1.80;;;;;;;;;;5138180;27;20210;-88
2023/09/19 08:06:38;;;;;;;2.40;1.60;;;;;;;;;;5138323;27;20248;-88
2023/09/19 08:09:10;;;;;;;2.00;1.33;;;;;;;;;;5138557;27;20199;-87
2023/09/19 08:11:39;;;;;;;1.70;1.45;;;;;;;;;;5138677;27;20223;-87
2023/09/19 08:14:08;;;;;;;2.78;1.30;;;;;;;;;;5139850;27;20294;-88
2023/09/19 08:16:36;;;;;;;2.25;1.42;;;;;;;;;;5139143;27;20664;-87
2023/09/19 08:19:04;;;;;;;1.45;1.20;;;;;;;;;;5139016;27;20693;-87
2023/09/19 08:21:31;;;;;;;1.77;1.40;;;;;;;;;;5140187;27;20234;-89
2023/09/19 08:23:59;;;;;;;1.90;1.48;;;;;;;;;;5140354;27;20211;-88
2023/09/19 08:26:26;;;;;;;1.25;1.20;;;;;;;;;;5139272;27;20226;-88
2023/09/19 08:28:55;;;;;;;2.97;1.40;;;;;;;;;;5139246;27;20226;-87
2023/09/19 08:31:22;;;;;;;2.33;1.67;;;;;;;;;;5137727;27;20602;-87
2023/09/19 08:33:52;;;;;;;3.03;1.58;;;;;;;;;;5139092;27;20195;-90
2023/09/19 08:36:19;;;;;;;3.28;1.60;;;;;;;;;;5137896;27;20768;-88
2023/09/19 08:38:47;;;;;;;1.55;1.45;;;;;;;;;;5138693;27;20207;-90
2023/09/19 08:41:14;;;;;;;1.52;1.42;;;;;;;;;;5137458;27;20227;-88
2023/09/19 08:43:41;;;;;;;3.63;1.50;;;;;;;;;;5138031;27;20168;-88
2023/09/19 08:46:11;;;;;;;1.50;1.40;;;;;;;;;;5137890;27;20230;-87
2023/09/19 08:48:41;;;;;;;5.20;1.83;;;;;;;;;;5138177;27;20191;-87
2023/09/19 08:51:09;;;;;;;1.20;1.10;;;;;;;;;;5137325;27;20241;-87
2023/09/19 08:53:43;;;;;;;2.92;1.52;;;;;;;;;;5136460;27;20215;-87
2023/09/19 08:56:12;;;;;;;3.80;1.67;;;;;;;;;;5135986;27;20230;-86
2023/09/19 08:58:43;;;;;;;2.28;1.42;;;;;;;;;;5136601;27;20203;-86
2023/09/19 09:01:14;;;;;;;1.58;1.38;;;;;;;;;;5135364;27;20234;-86
2023/09/19 09:03:43;;;;;;;1.20;1.08;;;;;;;;;;5136336;27;20192;-89
2023/09/19 09:06:15;;;;;;;2.13;1.23;;;;;;;;;;5135630;27;20227;-87
2023/09/19 09:08:42;;;;;;;5.13;1.70;;;;;;;;;;5137120;27;20586;-87
2023/09/19 09:11:10;;;;;;;1.55;1.33;;;;;;;;;;5137858;27;20242;-88
2023/09/19 09:13:38;;;;;;;1.92;1.40;;;;;;;;;;5137491;27;20202;-89
2023/09/19 09:16:06;;;;;;;1.30;1.20;;;;;;;;;;5137273;27;20243;-87
2023/09/19 09:18:33;;;;;;;1.60;1.25;;;;;;;;;;5137071;27;20673;-88
2023/09/19 09:21:00;;;;;;;2.25;1.27;;;;;;;;;;5136290;27;20720;-88
2023/09/19 09:23:30;;;;;;;4.63;1.20;;;;;;;;;;5137834;27;20206;-89
2023/09/19 09:26:02;;;;;;;1.35;1.20;;;;;;;;;;5136587;27;20231;-88
2023/09/19 09:28:30;;;;;;;2.13;1.38;;;;;;;;;;5137270;27;20203;-87
2023/09/19 09:30:58;;;;;;;1.83;1.30;;;;;;;;;;5136646;27;20719;-87
2023/09/19 09:33:26;;;;;;;1.40;1.23;;;;;;;;;;5137060;27;20571;-88
2023/09/19 09:35:56;;;;;;;2.17;1.38;;;;;;;;;;5136443;27;20321;-88
2023/09/19 09:38:25;;;;;;;1.20;1.10;;;;;;;;;;5136942;27;20285;-88
2023/09/19 09:40:59;;;;;;;2.17;1.23;;;;;;;;;;5136370;27;20254;-87
2023/09/19 09:43:30;;;;;;;3.50;1.30;;;;;;;;;;5136906;27;20711;-88
2023/09/19 09:46:55;;;;;;;2.78;1.67;;;;;;;;;;5136647;27;20223;-87
2023/09/19 09:49:25;;;;;;;2.63;1.20;;;;;;;;;;5136399;27;20679;-88
2023/09/19 09:51:59;;;;;;;0.98;0.98;;;;;;;;;;5137692;27;20223;-86
2023/09/19 09:54:33;;;;;;;1.67;1.30;;;;;;;;;;5136596;27;20849;-89
2023/09/19 09:57:13;;;;;;;1.20;1.10;;;;;;;;;;5136891;27;20188;-90
2023/09/19 09:59:50;;;;;;;3.83;1.10;;;;;;;;;;5136659;27;20227;-88
2023/09/19 10:02:24;;;;;;;2.45;1.60;;;;;;;;;;5137004;27;20227;-90
2023/09/19 10:05:09;;;;;;;2.88;1.77;;;;;;;;;;5136421;27;20236;-88
2023/09/19 10:07:38;;;;;;;3.08;1.85;;;;;;;;;;5136048;27;20211;-89
2023/09/19 10:10:13;;;;;;;3.13;1.20;;;;;;;;;;5136006;27;20224;-88
2023/09/19 10:12:43;;;;;;;1.27;0.90;;;;;;;;;;5136529;27;20255;-88
2023/09/19 10:15:13;;;;;;;1.65;1.10;;;;;;;;;;5135714;27;20227;-89
2023/09/19 10:17:43;;;;;;;2.88;1.13;;;;;;;;;;5136091;27;20203;-89
2023/09/19 10:20:22;;;;;;;1.30;1.20;;;;;;;;;;5136217;27;20700;-89
2023/09/19 10:22:56;;;;;;;1.75;1.27;;;;;;;;;;5136825;27;20284;-89
2023/09/19 10:25:25;;;;;;;4.38;1.27;;;;;;;;;;5136163;27;20314;-89
2023/09/19 10:27:55;;;;;;;2.25;1.25;;;;;;;;;;5136278;27;20203;-90
2023/09/19 10:30:24;;;;;;;1.40;1.30;;;;;;;;;;5136426;27;20231;-89
2023/09/19 10:32:59;;;;;;;1.92;1.33;;;;;;;;;;5137078;27;20230;-88
2023/09/19 10:35:26;;;;;;;1.15;1.05;;;;;;;;;;5135736;27;20234;-89
2023/09/19 10:37:55;;;;;;;2.40;1.23;;;;;;;;;;5136698;27;20657;-91
2023/09/19 10:40:30;;;;;;;3.10;1.50;;;;;;;;;;5135984;27;20643;-89
2023/09/19 10:43:02;;;;;;;1.58;1.25;;;;;;;;;;5136141;27;20726;-88
2023/09/19 10:45:31;;;;;;;2.15;1.45;;;;;;;;;;5135890;27;20322;-88
2023/09/19 10:47:58;;;;;;;1.60;1.10;;;;;;;;;;5136411;28;20733;-89
2023/09/19 10:50:26;;;;;;;5.25;1.50;;;;;;;;;;5135549;27;20235;-90
2023/09/19 10:53:00;;;;;;;2.97;1.52;;;;;;;;;;5136253;28;20215;-89
2023/09/19 10:55:27;;;;;;;3.70;1.73;;;;;;;;;;5136359;27;20223;-90
2023/09/19 10:58:11;;;;;;;5.45;0.93;;;;;;;;;;5136145;28;20260;-89
2023/09/19 11:00:53;;;;;;;2.15;1.35;;;;;;;;;;5135952;27;20231;-91
2023/09/19 11:03:23;;;;;;;0.93;0.90;;;;;;;;;;5136063;27;20722;-88
2023/09/19 11:06:16;;;;;;;6.88;1.10;;;;;;;;;;5136099;27;20239;-88
2023/09/19 11:09:15;;;;;;;2.15;1.08;;;;;;;;;;5136780;28;20236;-89
2023/09/19 11:11:52;;;;;;;3.22;1.27;;;;;;;;;;5134844;28;20865;-88
2023/09/19 11:14:38;;;;;;;4.50;1.40;;;;;;;;;;5134872;27;20640;-89
2023/09/19 11:17:24;;;;;;;2.00;1.42;;;;;;;;;;5135625;28;20204;-88
2023/09/19 11:20:23;;;;;;;4.10;1.45;;;;;;;;;;5135747;27;20238;-89
2023/09/19 11:23:08;;;;;;;1.10;0.98;;;;;;;;;;5136079;28;20231;-88
2023/09/19 11:25:49;;;;;;;3.47;1.40;;;;;;;;;;5118998;27;20238;-89
2023/09/19 11:28:35;;;;;;;1.85;1.15;;;;;;;;;;5138152;27;20210;-92
2023/09/19 11:31:22;;;;;;;1.50;1.20;;;;;;;;;;5140032;27;20231;-89
2023/09/19 11:33:50;;;;;;;1.48;1.05;;;;;;;;;;5140847;27;20196;-89
2023/09/19 11:36:20;;;;;;;1.63;1.27;;;;;;;;;;5139307;27;20637;-88
2023/09/19 11:39:01;;;;;;;1.55;1.00;;;;;;;;;;5139733;27;20208;-90
2023/09/19 11:41:42;;;;;;;1.20;0.98;;;;;;;;;;5138895;27;20314;-89
2023/09/19 11:44:27;;;;;;;1.95;1.10;;;;;;;;;;5139057;27;20199;-88
2023/09/19 11:46:56;;;;;;;2.05;1.40;;;;;;;;;;5139465;27;20200;-89
2023/09/19 11:49:30;;;;;;;1.50;1.17;;;;;;;;;;5139109;27;20231;-87
2023/09/19 11:52:01;;;;;;;1.65;1.00;;;;;;;;;;5139393;27;20238;-89
2023/09/19 11:54:31;;;;;;;2.78;1.50;;;;;;;;;;5138532;27;20314;-88
2023/09/19 11:57:00;;;;;;;4.93;1.88;;;;;;;;;;5139393;27;20203;-88
2023/09/19 11:59:29;;;;;;;5.30;1.42;;;;;;;;;;5138694;27;20230;-89
2023/09/19 12:01:58;;;;;;;2.10;1.27;;;;;;;;;;5139014;27;20322;-89
2023/09/19 12:04:38;;;;;;;2.20;1.10;;;;;;;;;;5138587;27;20238;-89
2023/09/19 12:07:10;;;;;;;1.83;0.90;;;;;;;;;;5139663;27;20207;-89
2023/09/19 12:09:37;;;;;;;3.55;1.25;;;;;;;;;;5140425;27;20239;-88
2023/09/19 12:12:06;;;;;;;3.20;0.98;;;;;;;;;;5139207;27;20216;-89
2023/09/19 12:14:33;;;;;;;1.42;0.98;;;;;;;;;;5138315;27;20606;-88
2023/09/19 12:17:03;;;;;;;2.45;0.75;;;;;;;;;;5139273;27;20200;-92
2023/09/19 12:19:30;;;;;;;2.42;1.48;;;;;;;;;;5138955;27;20298;-91
2023/09/19 12:21:59;;;;;;;1.25;1.02;;;;;;;;;;5139875;27;20234;-89
2023/09/19 12:24:26;;;;;;;2.05;1.15;;;;;;;;;;5139735;27;20231;-88
2023/09/19 12:26:56;;;;;;;1.30;0.98;;;;;;;;;;5138391;27;20230;-90
2023/09/19 12:29:25;;;;;;;2.85;1.45;;;;;;;;;;5138277;27;20255;-88
2023/09/19 12:31:54;;;;;;;4.25;1.17;;;;;;;;;;5138130;27;20715;-88
2023/09/19 12:34:22;;;;;;;1.33;1.02;;;;;;;;;;5138073;27;20231;-88
2023/09/19 12:36:50;;;;;;;2.03;1.20;;;;;;;;;;5138504;27;20229;-90
2023/09/19 12:39:26;;;;;;;1.70;1.00;;;;;;;;;;5137824;27;20199;-88
2023/09/19 12:41:54;;;;;;;1.65;1.10;;;;;;;;;;5137924;27;20219;-89
2023/09/19 12:44:24;;;;;;;2.65;1.10;;;;;;;;;;5137459;27;20227;-88
2023/09/19 12:46:54;;;;;;;2.65;1.10;;;;;;;;;;5138390;27;20208;-90
2023/09/19 12:49:22;;;;;;;2.70;0.98;;;;;;;;;;5137908;27;20234;-90
2023/09/19 12:51:50;;;;;;;3.03;1.60;;;;;;;;;;5136511;27;20261;-90
2023/09/19 12:54:17;;;;;;;3.13;0.95;;;;;;;;;;5136653;27;20282;-88
2023/09/19 12:56:45;;;;;;;1.48;1.08;;;;;;;;;;5136817;27;20203;-91
2023/09/19 12:59:14;;;;;;;1.65;1.00;;;;;;;;;;5136965;27;20207;-89
2023/09/19 13:01:45;;;;;;;1.25;1.10;;;;;;;;;;5138371;27;20757;-90
2023/09/19 13:04:15;;;;;;;1.30;1.20;;;;;;;;;;5137231;27;20638;-89
2023/09/19 13:06:43;;;;;;;2.13;1.33;;;;;;;;;;5137743;27;20191;-89
2023/09/19 13:09:11;;;;;;;1.70;1.25;;;;;;;;;;5137275;27;20234;-88
2023/09/19 13:11:40;;;;;;;0.80;0.80;;;;;;;;;;5137308;27;20227;-90
2023/09/19 13:14:18;;;;;;;1.23;0.90;;;;;;;;;;5137159;27;20704;-90
2023/09/19 13:16:58;;;;;;;2.10;1.00;;;;;;;;;;5137867;27;20234;-90
2023/09/19 13:19:37;;;;;;;2.88;1.83;;;;;;;;;;5136537;27;20304;-92
2023/09/19 13:22:05;;;;;;;2.00;1.20;;;;;;;;;;5137333;27;20231;-90
2023/09/19 13:24:35;;;;;;;1.90;0.60;;;;;;;;;;5136837;27;20227;-88
2023/09/19 13:27:03;;;;;;;1.35;1.10;;;;;;;;;;5137235;27;20205;-90
2023/09/19 13:29:30;;;;;;;1.17;1.08;;;;;;;;;;5137114;27;20284;-90
2023/09/19 13:31:57;;;;;;;1.17;1.05;;;;;;;;;;5136679;27;20253;-89
2023/09/19 13:34:25;;;;;;;1.73;1.17;;;;;;;;;;5136695;27;20595;-91
2023/09/19 13:36:54;;;;;;;1.75;0.77;;;;;;;;;;5137640;27;20248;-89
2023/09/19 13:39:24;;;;;;;1.67;1.00;;;;;;;;;;5136508;27;20247;-89
2023/09/19 13:41:51;;;;;;;2.58;1.30;;;;;;;;;;5137524;27;20246;-88
2023/09/19 13:44:19;;;;;;;1.95;1.20;;;;;;;;;;5135692;27;20210;-86
2023/09/19 13:46:47;;;;;;;2.50;0.85;;;;;;;;;;5136236;27;20680;-86
2023/09/19 13:49:14;;;;;;;1.13;1.02;;;;;;;;;;5135607;27;20238;-86
2023/09/19 13:51:43;;;;;;;3.10;1.10;;;;;;;;;;5135479;27;20317;-85
2023/09/19 13:54:12;;;;;;;3.00;1.10;;;;;;;;;;5135502;27;20218;-85
2023/09/19 13:56:39;;;;;;;1.23;0.90;;;;;;;;;;5135764;27;20244;-87
2023/09/19 13:59:06;;;;;;;1.35;0.80;;;;;;;;;;5135615;27;20203;-86
2023/09/19 14:01:33;;;;;;;2.40;1.02;;;;;;;;;;5136088;27;20223;-85
2023/09/19 14:04:02;;;;;;;1.83;0.88;;;;;;;;;;5135744;27;20254;-85
2023/09/19 14:06:29;;;;;;;1.20;1.00;;;;;;;;;;5135581;27;20214;-86
2023/09/19 14:08:56;;;;;;;2.80;1.10;;;;;;;;;;5135689;27;20191;-86
2023/09/19 14:11:24;;;;;;;2.53;1.15;;;;;;;;;;5135166;27;20242;-87
2023/09/19 14:13:51;;;;;;;2.13;1.00;;;;;;;;;;5134947;27;20195;-86
2023/09/19 14:16:19;;;;;;;2.92;1.52;;;;;;;;;;5133471;27;20861;-86
2023/09/19 14:18:46;;;;;;;2.80;1.25;;;;;;;;;;5133925;27;20200;-85
2023/09/19 14:21:14;;;;;;;1.95;1.10;;;;;;;;;;5134593;27;20605;-87
2023/09/19 14:23:42;;;;;;;0.90;0.82;;;;;;;;;;5135267;27;20226;-85
2023/09/19 14:26:10;;;;;;;1.48;1.10;;;;;;;;;;5135021;27;20238;-86
2023/09/19 14:28:39;;;;;;;2.47;1.08;;;;;;;;;;5135489;27;20199;-87
2023/09/19 14:31:07;;;;;;;1.83;1.25;;;;;;;;;;5134967;27;20797;-86
2023/09/19 14:33:34;;;;;;;1.00;1.00;;;;;;;;;;5135648;28;20275;-86
2023/09/19 14:36:05;;;;;;;5.00;1.10;;;;;;;;;;5134633;27;20243;-87
2023/09/19 14:38:33;;;;;;;2.40;1.23;;;;;;;;;;5135448;28;20681;-86
2023/09/19 14:41:01;;;;;;;1.77;1.27;;;;;;;;;;5134594;27;20629;-85
2023/09/19 14:43:29;;;;;;;1.52;1.02;;;;;;;;;;5135625;28;20219;-85
2023/09/19 14:45:58;;;;;;;1.15;0.88;;;;;;;;;;5134813;27;20227;-85
2023/09/19 14:48:25;;;;;;;1.67;1.20;;;;;;;;;;5135593;28;20203;-86
2023/09/19 14:50:52;;;;;;;2.00;1.00;;;;;;;;;;5134973;27;20235;-85
2023/09/19 14:53:20;;;;;;;1.30;1.00;;;;;;;;;;5135383;28;20293;-86
2023/09/19 14:55:51;;;;;;;1.85;0.88;;;;;;;;;;5135044;27;20611;-88
2023/09/19 14:58:19;;;;;;;1.00;0.90;;;;;;;;;;5135697;27;20184;-85
2023/09/19 15:00:46;;;;;;;0.60;0.60;;;;;;;;;;5132761;27;20227;-86
2023/09/19 15:03:14;;;;;;;3.97;1.27;;;;;;;;;;5117105;28;20310;-85
2023/09/19 15:05:42;;;;;;;1.65;1.00;;;;;;;;;;5118418;28;20235;-87
2023/09/19 15:08:09;;;;;;;2.15;1.20;;;;;;;;;;5118730;28;20307;-85
2023/09/19 15:10:36;;;;;;;1.20;1.10;;;;;;;;;;5118110;28;20215;-85
2023/09/19 15:13:03;;;;;;;2.35;0.95;;;;;;;;;;5118655;28;20211;-86
2023/09/19 15:15:32;;;;;;;1.55;0.90;;;;;;;;;;5118182;28;20249;-85
2023/09/19 15:17:59;;;;;;;1.58;1.33;;;;;;;;;;5118705;28;20665;-86
2023/09/19 15:20:28;;;;;;;1.13;0.90;;;;;;;;;;5117902;28;20719;-85
2023/09/19 15:22:55;;;;;;;4.40;1.25;;;;;;;;;;5119104;28;20215;-85
2023/09/19 15:25:23;;;;;;;1.48;1.20;;;;;;;;;;5116513;28;20232;-85
2023/09/19 15:27:50;;;;;;;1.35;1.10;;;;;;;;;;5117616;28;20684;-86
2023/09/19 15:30:17;;;;;;;3.28;0.98;;;;;;;;;;5120189;28;20235;-85
2023/09/19 15:32:44;;;;;;;1.10;1.00;;;;;;;;;;5118603;28;20224;-85
2023/09/19 15:35:13;;;;;;;1.10;0.80;;;;;;;;;;5118265;28;20234;-84
2023/09/19 15:37:42;;;;;;;2.83;1.02;;;;;;;;;;5118493;28;20210;-85
2023/09/19 15:40:12;;;;;;;0.85;0.85;;;;;;;;;;5117876;28;20251;-84
2023/09/19 15:42:39;;;;;;;1.27;0.65;;;;;;;;;;5118271;28;20250;-85
2023/09/19 15:45:09;;;;;;;2.03;1.13;;;;;;;;;;5118829;28;20228;-87
2023/09/19 15:47:37;;;;;;;0.98;0.77;;;;;;;;;;5117880;28;20208;-86
2023/09/19 15:50:04;;;;;;;2.05;1.17;;;;;;;;;;5118800;28;20307;-86
2023/09/19 15:52:31;;;;;;;2.03;1.40;;;;;;;;;;5118142;28;20227;-86
2023/09/19 15:55:00;;;;;;;2.65;0.90;;;;;;;;;;5117397;28;20508;-86
2023/09/19 15:57:28;;;;;;;0.75;0.70;;;;;;;;;;5118854;28;20203;-86
2023/09/19 15:59:55;;;;;;;2.58;0.98;;;;;;;;;;5120745;28;20603;-86
2023/09/19 16:02:22;;;;;;;1.33;1.00;;;;;;;;;;5118963;28;20220;-85
2023/09/19 16:04:49;;;;;;;0.75;0.75;;;;;;;;;;5116975;28;20232;-85
2023/09/19 16:07:18;;;;;;;0.93;0.88;;;;;;;;;;5117843;28;20212;-86
2023/09/19 16:09:45;;;;;;;1.83;1.10;;;;;;;;;;5117657;28;20224;-85
2023/09/19 16:12:14;;;;;;;1.33;0.70;;;;;;;;;;5118247;28;20238;-84
2023/09/19 16:14:41;;;;;;;0.95;0.75;;;;;;;;;;5118935;28;20234;-86
2023/09/19 16:17:08;;;;;;;3.42;0.90;;;;;;;;;;5118109;28;20202;-85
2023/09/19 16:19:35;;;;;;;1.17;0.70;;;;;;;;;;5117242;28;20261;-85
2023/09/19 16:22:02;;;;;;;1.05;0.88;;;;;;;;;;5117182;28;20223;-84
2023/09/19 16:24:29;;;;;;;0.98;0.80;;;;;;;;;;5116399;28;20235;-85
2023/09/19 16:26:56;;;;;;;0.70;0.70;;;;;;;;;;5116660;28;20245;-85
2023/09/19 16:29:25;;;;;;;1.83;1.13;;;;;;;;;;5115557;28;20713;-86
2023/09/19 16:31:52;;;;;;;1.02;1.02;;;;;;;;;;5117036;28;20220;-85
2023/09/19 16:34:19;;;;;;;2.03;0.93;;;;;;;;;;5116757;28;20545;-85
2023/09/19 16:36:46;;;;;;;1.17;0.82;;;;;;;;;;5116909;28;20207;-86